createdAt,value
2023-05-22T00:01:56.795Z,2.60
2023-05-22T00:04:29.991Z,2.42
2023-05-22T00:06:59.368Z,2.47
2023-05-22T00:09:27.800Z,2.72
2023-05-22T00:11:55.695Z,2.53
2023-05-22T00:14:23.780Z,2.40
2023-05-22T00:16:51.680Z,2.45
2023-05-22T00:19:23.195Z,2.33
2023-05-22T00:21:51.358Z,2.47
2023-05-22T00:24:20.773Z,2.35
2023-05-22T00:26:48.569Z,2.50
2023-05-22T00:29:16.487Z,2.33
2023-05-22T00:31:44.327Z,2.25
2023-05-22T00:34:12.256Z,2.40
2023-05-22T00:36:40.229Z,2.60
2023-05-22T00:39:08.067Z,2.50
2023-05-22T00:41:38.556Z,2.50
2023-05-22T00:44:07.901Z,2.65
2023-05-22T00:46:36.438Z,2.70
2023-05-22T00:49:11.627Z,2.45
2023-05-22T00:51:39.605Z,2.60
2023-05-22T00:54:07.762Z,2.38
2023-05-22T00:56:37.161Z,2.72
2023-05-22T00:59:05.272Z,2.30
2023-05-22T01:01:36.912Z,2.63
2023-05-22T01:04:07.983Z,2.35
2023-05-22T01:06:36.116Z,2.08
2023-05-22T01:09:05.029Z,2.58
2023-05-22T01:11:39.693Z,2.88
2023-05-22T01:14:15.614Z,2.90
2023-05-22T01:16:51.664Z,2.65
2023-05-22T01:19:51.260Z,2.28
2023-05-22T01:22:31.705Z,2.42
2023-05-22T01:25:17.624Z,2.53
2023-05-22T01:28:03.536Z,2.53
2023-05-22T01:30:49.184Z,2.40
2023-05-22T01:33:19.134Z,1.92
2023-05-22T01:35:51.947Z,1.90
2023-05-22T01:38:20.246Z,2.40
2023-05-22T01:40:49.384Z,2.72
2023-05-22T01:43:17.663Z,1.92
2023-05-22T01:45:47.201Z,1.95
2023-05-22T01:48:15.093Z,2.70
2023-05-22T01:50:45.243Z,2.40
2023-05-22T01:53:25.081Z,2.60
2023-05-22T01:55:58.929Z,2.30
2023-05-22T01:58:35.254Z,2.65
2023-05-22T02:01:05.352Z,2.30
2023-05-22T02:03:36.184Z,2.20
2023-05-22T02:06:07.743Z,2.50
2023-05-22T02:08:38.134Z,2.22
2023-05-22T02:11:07.774Z,2.72
2023-05-22T02:13:35.875Z,2.63
2023-05-22T02:16:06.331Z,2.30
2023-05-22T02:18:34.339Z,2.58
2023-05-22T02:21:03.209Z,2.22
2023-05-22T02:23:31.134Z,1.92
2023-05-22T02:25:59.019Z,2.30
2023-05-22T02:28:26.884Z,3.10
2023-05-22T02:30:54.856Z,2.40
2023-05-22T02:33:24.185Z,2.15
2023-05-22T02:35:52.146Z,2.25
2023-05-22T02:38:20.329Z,2.13
2023-05-22T02:40:49.715Z,2.55
2023-05-22T02:43:17.591Z,2.58
2023-05-22T02:45:45.558Z,2.05
2023-05-22T02:48:13.434Z,2.30
2023-05-22T02:50:44.122Z,2.60
2023-05-22T02:53:13.086Z,2.65
2023-05-22T02:55:41.703Z,2.10
2023-05-22T02:58:11.225Z,2.08
2023-05-22T03:00:39.312Z,3.10
2023-05-22T03:03:07.954Z,2.30
2023-05-22T03:05:36.596Z,2.20
2023-05-22T03:08:06.668Z,2.45
2023-05-22T03:10:34.533Z,2.55
2023-05-22T03:13:02.435Z,2.60
2023-05-22T03:15:30.641Z,2.72
2023-05-22T03:17:58.496Z,2.58
2023-05-22T03:20:26.417Z,3.00
2023-05-22T03:22:54.290Z,2.60
2023-05-22T03:25:23.711Z,2.30
2023-05-22T03:27:51.543Z,2.30
2023-05-22T03:30:19.446Z,2.58
2023-05-22T03:32:47.358Z,2.80
2023-05-22T03:35:19.461Z,3.15
2023-05-22T03:37:47.419Z,2.63
2023-05-22T03:40:15.603Z,2.72
2023-05-22T03:42:44.816Z,2.05
2023-05-22T03:45:12.912Z,2.35
2023-05-22T03:47:40.789Z,2.78
2023-05-22T03:50:09.217Z,2.17
2023-05-22T03:52:37.061Z,2.88
2023-05-22T03:55:05.568Z,2.47
2023-05-22T03:57:33.372Z,2.47
2023-05-22T04:00:09.619Z,2.47
2023-05-22T04:02:38.729Z,2.22
2023-05-22T04:05:09.247Z,2.70
2023-05-22T04:07:37.435Z,2.50
2023-05-22T04:10:05.701Z,2.55
2023-05-22T04:12:33.553Z,2.38
2023-05-22T04:15:02.782Z,2.50
2023-05-22T04:17:33.574Z,2.58
2023-05-22T04:20:01.838Z,2.85
2023-05-22T04:22:31.334Z,2.40
2023-05-22T04:24:59.241Z,2.33
2023-05-22T04:27:29.766Z,2.58
2023-05-22T04:29:59.942Z,2.97
2023-05-22T04:32:29.679Z,2.67
2023-05-22T04:35:00.496Z,2.45
2023-05-22T04:37:31.592Z,2.15
2023-05-22T04:40:05.762Z,2.53
2023-05-22T04:42:34.515Z,2.78
2023-05-22T04:45:02.487Z,2.50
2023-05-22T04:47:32.555Z,3.13
2023-05-22T04:50:02.454Z,2.90
2023-05-22T04:52:30.362Z,2.72
2023-05-22T04:55:00.012Z,2.42
2023-05-22T04:57:29.669Z,2.42
2023-05-22T04:59:58.136Z,2.53
2023-05-22T05:02:25.970Z,2.78
2023-05-22T05:04:55.387Z,2.50
2023-05-22T05:07:23.676Z,3.22
2023-05-22T05:09:51.546Z,2.13
2023-05-22T05:12:19.407Z,2.63
2023-05-22T05:14:48.410Z,2.97
2023-05-22T05:17:16.284Z,2.80
2023-05-22T05:19:44.156Z,3.53
2023-05-22T05:22:13.337Z,2.60
2023-05-22T05:24:41.207Z,3.17
2023-05-22T05:27:09.103Z,2.90
2023-05-22T05:29:37.006Z,2.78
2023-05-22T05:32:05.540Z,3.05
2023-05-22T05:34:33.449Z,3.00
2023-05-22T05:37:02.860Z,3.00
2023-05-22T05:39:32.183Z,2.90
2023-05-22T05:42:00.573Z,3.13
2023-05-22T05:44:28.556Z,2.70
2023-05-22T05:46:57.028Z,2.97
2023-05-22T05:49:24.891Z,3.15
2023-05-22T05:51:52.816Z,2.67
2023-05-22T05:54:21.109Z,3.20
2023-05-22T05:56:50.324Z,3.80
2023-05-22T05:59:18.213Z,3.58
2023-05-22T06:01:47.171Z,3.45
2023-05-22T06:04:15.157Z,3.42
2023-05-22T06:06:44.233Z,3.67
2023-05-22T06:09:12.401Z,4.05
2023-05-22T06:11:40.340Z,4.00
2023-05-22T06:14:10.159Z,3.70
2023-05-22T06:16:38.053Z,3.67
2023-05-22T06:19:06.078Z,4.20
2023-05-22T06:21:33.941Z,3.97
2023-05-22T06:24:01.847Z,4.05
2023-05-22T06:26:29.732Z,4.07
2023-05-22T06:28:57.589Z,3.80
2023-05-22T06:31:28.018Z,3.53
2023-05-22T06:33:56.059Z,3.63
2023-05-22T06:36:24.043Z,3.83
2023-05-22T06:38:51.975Z,3.70
2023-05-22T06:41:19.845Z,4.00
2023-05-22T06:43:47.692Z,3.95
2023-05-22T06:46:15.600Z,4.35
2023-05-22T06:48:44.855Z,4.30
2023-05-22T06:51:14.941Z,4.32
2023-05-22T06:53:42.865Z,4.20
2023-05-22T06:56:10.781Z,4.30
2023-05-22T06:58:38.632Z,3.45
2023-05-22T07:01:07.747Z,4.88
2023-05-22T07:03:35.831Z,4.03
2023-05-22T07:06:06.204Z,4.13
2023-05-22T07:08:35.212Z,4.32
2023-05-22T07:11:06.760Z,3.83
2023-05-22T07:13:34.617Z,3.50
2023-05-22T07:16:02.541Z,4.18
2023-05-22T07:18:31.349Z,3.65
2023-05-22T07:20:59.946Z,4.55
2023-05-22T07:23:29.133Z,4.10
2023-05-22T07:25:57.042Z,4.40
2023-05-22T07:28:24.914Z,4.65
2023-05-22T07:30:52.760Z,5.13
2023-05-22T07:33:20.695Z,4.57
2023-05-22T07:35:48.557Z,4.75
2023-05-22T07:38:16.431Z,4.40
2023-05-22T07:40:45.707Z,4.65
2023-05-22T07:43:15.295Z,4.20
2023-05-22T07:45:44.174Z,4.28
2023-05-22T07:48:12.221Z,4.28
2023-05-22T07:50:44.670Z,4.53
2023-05-22T07:53:12.695Z,3.97
2023-05-22T07:55:41.013Z,3.78
2023-05-22T07:58:10.803Z,3.60
2023-05-22T08:00:38.704Z,4.43
2023-05-22T08:03:06.809Z,4.22
2023-05-22T08:05:34.867Z,3.63
2023-05-22T08:08:03.763Z,5.00
2023-05-22T08:10:46.679Z,4.00
2023-05-22T08:13:20.958Z,3.92
2023-05-22T08:15:48.827Z,4.00
2023-05-22T08:18:16.726Z,4.30
2023-05-22T08:20:44.611Z,4.85
2023-05-22T08:23:12.559Z,4.97
2023-05-22T08:25:41.171Z,5.07
2023-05-22T08:28:09.302Z,3.88
2023-05-22T08:30:38.801Z,4.22
2023-05-22T08:33:06.861Z,4.30
2023-05-22T08:35:34.862Z,4.65
2023-05-22T08:38:02.774Z,4.35
2023-05-22T08:40:36.888Z,4.20
2023-05-22T08:43:06.180Z,4.10
2023-05-22T08:45:34.874Z,4.03
2023-05-22T08:48:06.958Z,3.30
2023-05-22T08:53:06.712Z,3.75
2023-05-22T08:55:35.179Z,4.30
2023-05-22T08:58:03.647Z,3.72
2023-05-22T09:00:31.892Z,3.33
2023-05-22T09:03:00.703Z,4.10
2023-05-22T09:05:30.490Z,4.55
2023-05-22T09:08:08.477Z,3.67
2023-05-22T09:10:44.580Z,4.07
2023-05-22T09:13:24.074Z,4.57
2023-05-22T09:15:52.019Z,4.20
2023-05-22T09:18:22.164Z,4.20
2023-05-22T09:20:51.844Z,4.43
2023-05-22T09:23:19.915Z,4.32
2023-05-22T09:25:47.896Z,4.50
2023-05-22T09:28:15.816Z,4.25
2023-05-22T09:30:43.864Z,4.43
2023-05-22T09:33:14.144Z,4.07
2023-05-22T09:35:43.890Z,4.38
2023-05-22T09:38:13.618Z,4.50
2023-05-22T09:40:42.049Z,4.50
2023-05-22T09:43:18.415Z,4.38
2023-05-22T09:45:46.358Z,4.65
2023-05-22T09:48:18.106Z,4.15
2023-05-22T09:50:48.644Z,4.10
2023-05-22T09:53:20.398Z,4.38
2023-05-22T09:55:49.425Z,4.50
2023-05-22T09:58:20.676Z,4.78
2023-05-22T10:00:51.024Z,4.60
2023-05-22T10:03:24.374Z,4.80
2023-05-22T10:05:55.656Z,4.50
2023-05-22T10:08:28.629Z,4.63
2023-05-22T10:10:57.832Z,4.60
2023-05-22T10:13:27.483Z,4.80
2023-05-22T10:15:56.012Z,3.75
2023-05-22T10:18:25.782Z,4.63
2023-05-22T10:20:54.324Z,4.65
2023-05-22T10:23:22.973Z,4.50
2023-05-22T10:25:54.008Z,4.65
2023-05-22T10:28:28.502Z,4.22
2023-05-22T10:31:01.262Z,3.67
2023-05-22T10:33:34.897Z,3.92
2023-05-22T10:36:06.457Z,3.58
2023-05-22T10:39:05.108Z,4.20
2023-05-22T10:41:35.668Z,4.18
2023-05-22T10:44:04.023Z,4.30
2023-05-22T10:46:34.507Z,3.50
2023-05-22T10:49:02.576Z,4.10
2023-05-22T10:51:30.867Z,3.83
2023-05-22T10:54:02.207Z,3.85
2023-05-22T10:56:36.152Z,3.92
2023-05-22T10:59:07.284Z,3.80
2023-05-22T11:01:37.838Z,3.92
2023-05-22T11:04:12.723Z,3.78
2023-05-22T11:06:42.355Z,4.07
2023-05-22T11:09:21.660Z,3.92
2023-05-22T11:12:20.640Z,4.07
2023-05-22T11:14:52.940Z,3.50
2023-05-22T11:17:25.962Z,3.80
2023-05-22T11:20:05.941Z,3.92
2023-05-22T11:22:36.620Z,3.75
2023-05-22T11:25:07.747Z,3.58
2023-05-22T11:27:39.047Z,3.42
2023-05-22T11:30:09.311Z,3.80
2023-05-22T11:32:37.869Z,4.40
2023-05-22T11:35:08.323Z,3.90
2023-05-22T11:37:39.600Z,3.45
2023-05-22T11:40:08.794Z,4.10
2023-05-22T11:42:39.004Z,3.70
2023-05-22T11:45:08.438Z,4.07
2023-05-22T11:47:36.375Z,3.72
2023-05-22T11:50:06.672Z,3.92
2023-05-22T11:52:35.629Z,4.10
2023-05-22T11:55:06.442Z,4.55
2023-05-22T12:00:06.430Z,3.92
2023-05-22T12:02:34.612Z,3.50
2023-05-22T12:05:02.634Z,4.30
2023-05-22T12:07:30.890Z,4.13
2023-05-22T12:10:00.120Z,3.65
2023-05-22T12:12:28.053Z,3.80
2023-05-22T12:14:55.984Z,3.67
2023-05-22T12:17:25.301Z,3.55
2023-05-22T12:19:54.666Z,4.20
2023-05-22T12:22:23.423Z,3.75
2023-05-22T12:24:53.527Z,3.85
2023-05-22T12:27:21.417Z,3.42
2023-05-22T12:29:49.299Z,3.40
2023-05-22T12:32:18.386Z,3.42
2023-05-22T12:34:50.263Z,3.83
2023-05-22T12:37:20.163Z,3.60
2023-05-22T12:39:57.861Z,3.92
2023-05-22T12:42:26.321Z,3.28
2023-05-22T12:44:54.961Z,3.72
2023-05-22T12:47:24.205Z,3.38
2023-05-22T12:49:53.481Z,3.42
2023-05-22T12:52:21.535Z,3.47
2023-05-22T12:54:49.490Z,3.40
2023-05-22T12:57:17.613Z,4.03
2023-05-22T12:59:45.517Z,3.50
2023-05-22T13:02:13.422Z,3.78
2023-05-22T13:04:41.362Z,3.45
2023-05-22T13:07:10.624Z,2.95
2023-05-22T13:09:38.533Z,4.03
2023-05-22T13:12:07.207Z,3.88
2023-05-22T13:14:35.124Z,3.53
2023-05-22T13:17:03.018Z,2.88
2023-05-22T13:19:31.032Z,3.33
2023-05-22T13:21:59.032Z,2.47
2023-05-22T13:24:28.281Z,3.05
2023-05-22T13:26:56.170Z,2.60
2023-05-22T13:29:24.110Z,3.20
2023-05-22T13:31:52.110Z,2.65
2023-05-22T13:34:20.117Z,2.83
2023-05-22T13:36:48.299Z,3.20
2023-05-22T13:39:16.214Z,3.20
2023-05-22T13:41:46.441Z,3.03
2023-05-22T13:44:14.650Z,3.20
2023-05-22T13:46:42.583Z,3.15
2023-05-22T13:49:10.681Z,3.20
2023-05-22T13:51:38.912Z,3.00
2023-05-22T13:54:06.918Z,2.92
2023-05-22T13:56:34.804Z,3.30
2023-05-22T13:59:06.475Z,3.28
2023-05-22T14:01:35.700Z,3.03
2023-05-22T14:04:04.575Z,2.90
2023-05-22T14:06:32.480Z,2.63
2023-05-22T14:09:00.771Z,2.58
2023-05-22T14:11:28.849Z,2.97
2023-05-22T14:13:56.725Z,2.33
2023-05-22T14:16:26.007Z,2.88
2023-05-22T14:18:54.014Z,3.00
2023-05-22T14:21:21.927Z,2.78
2023-05-22T14:23:49.816Z,3.00
2023-05-22T14:26:17.642Z,3.03
2023-05-22T14:28:45.674Z,2.60
2023-05-22T14:31:13.599Z,3.25
2023-05-22T14:33:43.023Z,3.25
2023-05-22T14:36:10.940Z,2.67
2023-05-22T14:38:38.825Z,2.63
2023-05-22T14:41:06.745Z,2.58
2023-05-22T14:43:37.023Z,2.60
2023-05-22T14:46:05.068Z,2.20
2023-05-22T14:48:32.966Z,2.10
2023-05-22T14:51:02.224Z,2.67
2023-05-22T14:53:30.105Z,2.40
2023-05-22T14:55:57.928Z,2.63
2023-05-22T14:58:25.813Z,2.78
2023-05-22T15:00:53.629Z,2.42
2023-05-22T15:03:21.526Z,2.33
2023-05-22T15:05:49.532Z,2.55
2023-05-22T15:08:20.392Z,2.65
2023-05-22T15:10:48.375Z,2.60
2023-05-22T15:13:16.393Z,2.22
2023-05-22T15:15:44.305Z,2.38
2023-05-22T15:18:13.066Z,2.72
2023-05-22T15:20:41.328Z,2.28
2023-05-22T15:23:09.342Z,2.70
2023-05-22T15:25:38.753Z,2.50
2023-05-22T15:28:07.742Z,2.70
2023-05-22T15:30:36.494Z,1.67
2023-05-22T15:33:04.857Z,2.38
2023-05-22T15:35:33.320Z,2.75
2023-05-22T15:38:03.055Z,2.28
2023-05-22T15:40:31.420Z,2.30
2023-05-22T15:43:03.906Z,2.30
2023-05-22T15:45:32.056Z,2.20
2023-05-22T15:48:00.442Z,2.75
2023-05-22T15:50:28.811Z,2.00
2023-05-22T15:52:56.784Z,2.28
2023-05-22T15:55:24.883Z,2.20
2023-05-22T15:57:52.917Z,1.98
2023-05-22T16:00:23.041Z,2.25
2023-05-22T16:02:51.214Z,2.63
2023-05-22T16:05:19.394Z,2.13
2023-05-22T16:07:47.332Z,2.38
2023-05-22T16:10:15.206Z,2.10
2023-05-22T16:12:43.137Z,2.40
2023-05-22T16:15:11.902Z,2.40
2023-05-22T16:17:41.162Z,2.30
2023-05-22T16:20:10.203Z,2.88
2023-05-22T16:22:48.228Z,2.17
2023-05-22T16:25:17.557Z,2.55
2023-05-22T16:27:45.582Z,2.50
2023-05-22T16:30:16.460Z,2.42
2023-05-22T16:32:46.858Z,2.85
2023-05-22T16:35:15.545Z,2.35
2023-05-22T16:37:43.509Z,2.22
2023-05-22T16:40:12.244Z,2.42
2023-05-22T16:42:40.180Z,3.00
2023-05-22T16:45:09.035Z,3.10
2023-05-22T16:47:37.102Z,2.65
2023-05-22T16:50:08.016Z,2.67
2023-05-22T16:52:36.629Z,2.92
2023-05-22T16:55:04.815Z,2.65
2023-05-22T16:57:32.701Z,2.45
2023-05-22T17:00:00.722Z,3.60
2023-05-22T17:02:29.025Z,3.00
2023-05-22T17:04:56.981Z,3.05
2023-05-22T17:07:26.507Z,2.83
2023-05-22T17:09:54.451Z,3.00
2023-05-22T17:12:22.522Z,2.83
2023-05-22T17:14:50.451Z,2.70
2023-05-22T17:17:18.327Z,3.35
2023-05-22T17:19:46.317Z,2.83
2023-05-22T17:22:14.239Z,2.83
2023-05-22T17:24:43.547Z,2.75
2023-05-22T17:27:11.706Z,2.65
2023-05-22T17:29:40.760Z,2.90
2023-05-22T17:32:08.822Z,2.63
2023-05-22T17:34:36.829Z,2.55
2023-05-22T17:37:04.771Z,2.70
2023-05-22T17:39:32.655Z,2.53
2023-05-22T17:42:01.862Z,2.47
2023-05-22T17:44:30.758Z,2.85
2023-05-22T17:46:58.682Z,2.67
2023-05-22T17:49:26.532Z,2.60
2023-05-22T17:51:54.390Z,2.55
2023-05-22T17:54:22.311Z,2.63
2023-05-22T17:56:50.205Z,2.72
2023-05-22T17:59:19.424Z,2.38
2023-05-22T18:01:47.749Z,2.30
2023-05-22T18:04:15.644Z,2.47
2023-05-22T18:06:43.522Z,2.38
2023-05-22T18:09:11.360Z,2.70
2023-05-22T18:11:39.280Z,2.78
2023-05-22T18:14:07.204Z,2.70
2023-05-22T18:16:36.492Z,2.75
2023-05-22T18:19:04.612Z,2.42
2023-05-22T18:21:32.529Z,2.65
2023-05-22T18:24:00.459Z,2.50
2023-05-22T18:26:28.462Z,2.70
2023-05-22T18:28:56.359Z,2.13
2023-05-22T18:31:24.235Z,2.55
2023-05-22T18:33:53.488Z,2.13
2023-05-22T18:36:21.631Z,2.35
2023-05-22T18:38:49.531Z,2.00
2023-05-22T18:41:17.546Z,2.00
2023-05-22T18:43:45.440Z,2.45
2023-05-22T18:46:13.459Z,2.40
2023-05-22T18:48:41.413Z,2.55
2023-05-22T18:51:10.644Z,2.35
2023-05-22T18:53:38.533Z,2.28
2023-05-22T18:56:06.601Z,1.92
2023-05-22T18:58:34.463Z,2.10
2023-05-22T19:01:02.701Z,2.08
2023-05-22T19:03:30.749Z,2.10
2023-05-22T19:05:58.740Z,2.00
2023-05-22T19:08:27.959Z,2.00
2023-05-22T19:10:59.863Z,1.88
2023-05-22T19:13:29.088Z,2.00
2023-05-22T19:15:57.209Z,2.05
2023-05-22T19:18:25.121Z,2.30
2023-05-22T19:20:52.969Z,1.85
2023-05-22T19:23:20.986Z,2.38
2023-05-22T19:25:50.812Z,2.03
2023-05-22T19:28:18.673Z,2.47
2023-05-22T19:30:46.759Z,2.22
2023-05-22T19:33:16.318Z,2.22
2023-05-22T19:35:44.544Z,2.28
2023-05-22T19:38:12.409Z,2.10
2023-05-22T19:40:40.436Z,2.30
2023-05-22T19:43:09.973Z,1.73
2023-05-22T19:45:37.834Z,2.30
2023-05-22T19:48:05.811Z,2.30
2023-05-22T19:50:35.362Z,2.38
2023-05-22T19:53:03.290Z,2.45
2023-05-22T19:55:31.812Z,2.15
2023-05-22T19:57:59.701Z,2.20
2023-05-22T20:00:31.278Z,2.42
2023-05-22T20:02:59.296Z,2.13
2023-05-22T20:05:27.302Z,2.00
2023-05-22T20:07:55.577Z,2.00
2023-05-22T20:10:23.902Z,2.00
2023-05-22T20:12:54.877Z,2.28
2023-05-22T20:15:24.815Z,2.45
2023-05-22T20:17:54.900Z,2.23
2023-05-22T20:20:24.105Z,2.20
2023-05-22T20:22:52.757Z,2.08
2023-05-22T20:25:21.209Z,2.50
2023-05-22T20:27:49.229Z,2.20
2023-05-22T20:30:17.418Z,2.35
2023-05-22T20:32:46.630Z,1.83
2023-05-22T20:35:18.399Z,2.10
2023-05-22T20:37:46.707Z,2.63
2023-05-22T20:40:15.982Z,2.58
2023-05-22T20:42:44.575Z,2.30
2023-05-22T20:45:14.835Z,1.90
2023-05-22T20:47:44.135Z,2.20
2023-05-22T20:50:12.615Z,2.15
2023-05-22T20:52:41.814Z,2.22
2023-05-22T20:55:10.570Z,1.80
2023-05-22T20:57:38.649Z,2.00
2023-05-22T21:00:11.028Z,2.10
2023-05-22T21:02:39.782Z,2.95
2023-05-22T21:05:08.212Z,2.55
2023-05-22T21:07:36.151Z,1.90
2023-05-22T21:10:05.919Z,2.63
2023-05-22T21:12:33.831Z,2.38
2023-05-22T21:15:01.670Z,2.58
2023-05-22T21:17:29.573Z,2.50
2023-05-22T21:19:57.438Z,2.25
2023-05-22T21:22:25.402Z,2.25
2023-05-22T21:24:53.244Z,2.45
2023-05-22T21:27:22.430Z,2.47
2023-05-22T21:29:50.283Z,2.50
2023-05-22T21:32:18.183Z,2.30
2023-05-22T21:34:46.703Z,2.40
2023-05-22T21:37:14.724Z,2.42
2023-05-22T21:39:42.690Z,2.58
2023-05-22T21:42:10.665Z,2.63
2023-05-22T21:44:40.174Z,2.35
2023-05-22T21:47:08.075Z,3.03
2023-05-22T21:49:38.753Z,2.60
2023-05-22T21:52:07.468Z,2.05
2023-05-22T21:54:35.446Z,2.40
2023-05-22T21:57:03.401Z,2.55
2023-05-22T21:59:31.526Z,2.67
2023-05-22T22:02:00.955Z,3.15
2023-05-22T22:04:28.851Z,2.40
2023-05-22T22:06:56.692Z,2.45
2023-05-22T22:09:24.577Z,2.85
2023-05-22T22:11:52.541Z,2.80
2023-05-22T22:14:20.719Z,2.58
2023-05-22T22:16:50.467Z,2.95
2023-05-22T22:19:19.805Z,2.40
2023-05-22T22:21:47.825Z,2.83
2023-05-22T22:24:15.885Z,2.42
2023-05-22T22:26:44.216Z,2.70
2023-05-22T22:29:12.154Z,2.95
2023-05-22T22:31:40.212Z,2.75
2023-05-22T22:34:08.174Z,3.35
2023-05-22T22:36:37.540Z,3.25
2023-05-22T22:39:05.955Z,4.07
2023-05-22T22:41:33.772Z,3.67
2023-05-22T22:44:01.654Z,4.68
2023-05-22T22:46:29.576Z,4.60
2023-05-22T22:48:58.809Z,5.18
2023-05-22T22:51:26.667Z,5.78
2023-05-22T22:53:55.903Z,6.45
2023-05-22T22:56:24.626Z,5.97
2023-05-22T22:58:52.495Z,6.68
2023-05-22T23:01:20.403Z,6.47
2023-05-22T23:03:48.272Z,7.22
2023-05-22T23:06:17.131Z,6.75
2023-05-22T23:08:45.179Z,6.30
2023-05-22T23:11:14.405Z,6.65
2023-05-22T23:13:43.497Z,6.38
2023-05-22T23:16:11.497Z,6.47
2023-05-22T23:18:39.419Z,6.75
2023-05-22T23:21:07.566Z,7.45
2023-05-22T23:23:35.469Z,7.90
2023-05-22T23:26:03.384Z,7.95
2023-05-22T23:28:32.531Z,8.05
2023-05-22T23:31:00.378Z,7.85
2023-05-22T23:33:28.285Z,7.63
2023-05-22T23:35:56.182Z,8.32
2023-05-22T23:38:24.031Z,7.95
2023-05-22T23:40:51.839Z,8.82
2023-05-22T23:43:20.802Z,8.52
2023-05-22T23:45:50.186Z,8.40
2023-05-22T23:48:18.081Z,7.93
2023-05-22T23:50:45.970Z,9.52
2023-05-22T23:53:13.810Z,9.18
2023-05-22T23:55:41.851Z,7.82
2023-05-22T23:58:10.065Z,8.73
